Time;durP1;ratioP1;P1;durP2;ratioP2;P2;SDS_P1;SDS_P2;PMS_P1;PMS_P2;Temp;Humidity;BMP_temperature;BMP_pressure;BME280_temperature;BME280_humidity;BME280_pressure;Samples;Min_cycle;Max_cycle;Signal;HPM_P1;HPM_P2
2022/01/25 00:15:03;;;;;;;50.13;20.83;;;5.50;99.90;;;;;;5045361;28;20400;-39
2022/01/25 00:24:49;;;;;;;47.35;20.08;;;5.40;99.90;;;;;;5038503;28;20068;-38
2022/01/25 00:30:23;;;;;;;44.55;19.52;;;5.40;99.90;;;;;;5034858;28;20034;-41
2022/01/25 00:32:46;;;;;;;46.22;21.05;;;5.50;99.90;;;;;;5032469;28;20044;-39
2022/01/25 00:35:11;;;;;;;49.30;21.38;;;5.50;99.90;;;;;;5032477;28;20481;-39
2022/01/25 00:37:37;;;;;;;44.35;19.42;;;5.50;99.90;;;;;;5032402;28;20036;-43
2022/01/25 00:40:04;;;;;;;42.88;20.52;;;5.40;99.90;;;;;;5035564;28;20469;-38
2022/01/25 00:42:30;;;;;;;50.85;19.98;;;5.40;99.90;;;;;;5033187;28;20044;-38
2022/01/25 00:44:55;;;;;;;41.90;19.35;;;5.40;99.90;;;;;;5032369;28;20026;-52
2022/01/25 00:47:24;;;;;;;47.15;21.35;;;5.50;99.90;;;;;;5032374;28;20029;-48
2022/01/25 00:49:52;;;;;;;48.60;22.25;;;5.40;99.90;;;;;;5033886;28;20386;-39
2022/01/25 00:53:53;;;;;;;46.53;20.20;;;5.40;99.90;;;;;;5036153;28;20051;-38
2022/01/25 00:55:05;;;;;;;46.00;20.20;;;5.40;99.90;;;;;;5036011;28;20444;-39
2022/01/25 00:57:30;;;;;;;45.85;21.13;;;5.50;99.90;;;;;;5035933;28;20013;-40
2022/01/25 00:59:56;;;;;;;47.30;21.10;;;5.50;99.90;;;;;;5052410;28;20032;-39
2022/01/25 01:02:21;;;;;;;48.72;21.45;;;5.40;99.90;;;;;;5055887;28;20033;-38
2022/01/25 01:04:47;;;;;;;43.60;19.70;;;5.40;99.90;;;;;;5056151;28;20031;-40
2022/01/25 01:07:15;;;;;;;41.70;20.48;;;5.50;99.90;;;;;;5056012;28;20051;-38
2022/01/25 01:09:45;;;;;;;51.33;20.02;;;5.50;99.90;;;;;;5055813;28;20390;-39
2022/01/25 01:12:18;;;;;;;49.10;21.40;;;5.50;99.90;;;;;;5055935;28;20040;-38
2022/01/25 01:31:08;;;;;;;47.08;20.20;;;5.40;99.90;;;;;;5055402;28;20051;-40
2022/01/25 01:36:36;;;;;;;41.92;19.80;;;5.50;99.90;;;;;;5050559;28;20057;-39
2022/01/25 01:44:26;;;;;;;47.88;18.90;;;5.30;99.90;;;;;;5035265;28;20140;-38
2022/01/25 01:47:07;;;;;;;46.00;20.10;;;5.30;99.90;;;;;;5038697;28;20485;-39
2022/01/25 01:49:42;;;;;;;45.22;20.27;;;5.30;99.90;;;;;;5047759;28;20060;-39
2022/01/25 01:52:10;;;;;;;41.22;18.52;;;5.30;99.90;;;;;;5054910;28;20095;-40
2022/01/25 01:54:36;;;;;;;43.28;20.20;;;5.20;99.90;;;;;;5054685;28;20053;-38
2022/01/25 01:57:02;;;;;;;42.80;19.27;;;5.30;99.90;;;;;;5054895;28;20056;-39
2022/01/25 01:59:27;;;;;;;43.03;18.17;;;5.30;99.90;;;;;;5054819;28;20025;-38
2022/01/25 02:01:53;;;;;;;44.08;19.10;;;5.40;99.90;;;;;;5054158;28;20499;-40
2022/01/25 02:04:20;;;;;;;47.17;19.83;;;5.30;99.90;;;;;;5054671;28;20033;-38
2022/01/25 02:06:46;;;;;;;45.95;20.27;;;5.30;99.90;;;;;;5053617;28;20059;-39
2022/01/25 02:09:13;;;;;;;41.22;18.33;;;5.20;99.90;;;;;;5054642;28;20033;-39
2022/01/25 02:11:40;;;;;;;44.75;18.85;;;5.20;99.90;;;;;;5054731;28;20430;-40
2022/01/25 02:14:09;;;;;;;40.05;18.38;;;5.30;99.90;;;;;;5054549;28;20036;-67
2022/01/25 02:24:36;;;;;;;42.38;19.05;;;5.00;99.90;;;;;;5039655;28;20040;-38
2022/01/25 02:27:03;;;;;;;41.35;18.73;;;5.00;99.90;;;;;;5034414;28;20100;-39
2022/01/25 02:29:29;;;;;;;49.05;20.45;;;5.10;99.90;;;;;;5034314;28;20049;-39
2022/01/25 02:31:55;;;;;;;41.97;19.45;;;5.10;99.90;;;;;;5047995;28;20047;-67
2022/01/25 02:34:22;;;;;;;43.45;18.98;;;5.00;99.90;;;;;;5054156;28;20049;-37
2022/01/25 02:36:56;;;;;;;46.60;20.08;;;5.10;99.90;;;;;;5038475;28;20022;-40
2022/01/25 02:39:21;;;;;;;46.28;19.65;;;5.10;99.90;;;;;;5034478;28;20021;-40
2022/01/25 02:41:47;;;;;;;45.30;20.80;;;5.10;99.90;;;;;;5037573;28;20550;-38
2022/01/25 02:44:18;;;;;;;46.75;20.70;;;5.10;99.90;;;;;;5032836;28;20036;-40
2022/01/25 02:49:09;;;;;;;39.75;18.08;;;5.10;99.90;;;;;;5033998;28;20482;-38
2022/01/25 02:51:42;;;;;;;41.47;18.55;;;5.10;99.90;;;;;;5034003;28;20035;-66
2022/01/25 02:54:08;;;;;;;51.20;20.63;;;5.10;99.90;;;;;;5033612;28;20042;-61
2022/01/25 02:56:35;;;;;;;49.20;20.52;;;5.00;99.90;;;;;;5034061;28;20389;-39
2022/01/25 02:59:01;;;;;;;46.67;20.65;;;5.00;99.90;;;;;;5033760;28;20036;-38
2022/01/25 03:01:28;;;;;;;44.13;19.45;;;5.10;99.90;;;;;;5035191;28;20389;-43
2022/01/25 03:03:54;;;;;;;41.75;18.75;;;5.10;99.90;;;;;;5033962;28;20026;-40
2022/01/25 03:06:21;;;;;;;42.70;18.85;;;5.10;99.90;;;;;;5032547;28;20029;-39
2022/01/25 03:08:48;;;;;;;31.97;15.00;;;5.20;99.90;;;;;;5033557;28;20091;-40
2022/01/25 03:11:15;;;;;;;50.40;20.40;;;5.30;99.90;;;;;;5033256;28;20482;-39
2022/01/25 03:13:50;;;;;;;41.17;19.35;;;5.30;99.90;;;;;;5033331;28;20036;-39
2022/01/25 03:16:31;;;;;;;43.20;18.92;;;5.30;99.90;;;;;;5034063;28;20163;-39
2022/01/25 03:19:01;;;;;;;41.80;19.05;;;5.20;99.90;;;;;;5048658;28;20104;-38
2022/01/25 03:23:56;;;;;;;41.83;19.42;;;5.10;99.90;;;;;;5053339;28;20133;-39
2022/01/25 03:26:24;;;;;;;41.33;18.58;;;5.00;99.90;;;;;;5053289;28;20481;-39
2022/01/25 03:28:50;;;;;;;44.47;19.63;;;5.00;99.90;;;;;;5051217;28;20066;-40
2022/01/25 03:31:16;;;;;;;46.40;20.05;;;5.10;99.90;;;;;;5052871;28;20405;-39
2022/01/25 03:33:42;;;;;;;47.58;20.35;;;5.10;99.90;;;;;;5053129;28;20025;-39
2022/01/25 03:36:09;;;;;;;43.10;18.30;;;5.10;99.90;;;;;;5043927;28;20086;-39
2022/01/25 03:38:36;;;;;;;41.17;19.98;;;5.10;99.90;;;;;;5033000;28;20030;-38
2022/01/25 03:41:07;;;;;;;44.85;19.33;;;5.10;99.90;;;;;;5033341;28;20029;-39
2022/01/25 03:43:34;;;;;;;44.28;19.52;;;5.10;99.90;;;;;;5046398;28;20052;-38
2022/01/25 03:46:09;;;;;;;42.80;19.47;;;5.10;99.90;;;;;;5052968;28;20393;-39
2022/01/25 03:51:00;;;;;;;41.08;18.58;;;5.10;99.90;;;;;;5053040;28;20037;-39
2022/01/25 03:53:26;;;;;;;40.05;18.45;;;5.20;99.90;;;;;;5052659;28;20469;-43
2022/01/25 03:55:52;;;;;;;40.42;18.88;;;5.10;99.90;;;;;;5052680;28;20029;-40
2022/01/25 03:58:19;;;;;;;45.03;19.42;;;5.00;99.90;;;;;;5033120;28;20040;-38
2022/01/25 04:00:45;;;;;;;47.00;20.90;;;5.00;99.90;;;;;;5033019;28;20060;-38
2022/01/25 04:03:29;;;;;;;43.95;19.80;;;4.90;99.90;;;;;;5032842;28;20033;-38
2022/01/25 04:05:57;;;;;;;42.67;19.45;;;4.90;99.90;;;;;;5032806;28;20037;-38
2022/01/25 04:08:22;;;;;;;42.47;18.08;;;4.80;99.90;;;;;;5032904;28;20422;-39
2022/01/25 04:10:48;;;;;;;42.72;19.17;;;4.90;99.90;;;;;;5051734;28;20087;-40
2022/01/25 04:13:14;;;;;;;43.92;19.58;;;4.90;99.90;;;;;;5052666;28;20108;-38
2022/01/25 04:15:44;;;;;;;44.45;19.33;;;5.00;99.90;;;;;;5053035;28;20473;-39
2022/01/25 04:18:26;;;;;;;45.25;19.90;;;5.00;99.90;;;;;;5052874;28;20093;-38
2022/01/25 04:21:05;;;;;;;39.25;18.30;;;5.20;99.90;;;;;;5051437;28;20033;-39
2022/01/25 04:26:15;;;;;;;46.17;18.67;;;5.10;99.90;;;;;;5036616;28;20559;-44
2022/01/25 04:28:41;;;;;;;43.95;19.20;;;5.00;99.90;;;;;;5036906;28;20021;-38
2022/01/25 04:31:06;;;;;;;37.70;17.73;;;5.00;99.90;;;;;;5036502;28;20032;-38
2022/01/25 04:33:41;;;;;;;42.28;18.17;;;5.10;99.90;;;;;;5041372;28;20025;-38
2022/01/25 04:49:39;;;;;;;41.00;18.65;;;5.00;99.90;;;;;;5036166;28;20099;-39
2022/01/25 04:52:09;;;;;;;43.55;19.00;;;5.10;99.90;;;;;;5035829;28;20520;-39
2022/01/25 05:00:20;;;;;;;43.30;18.60;;;5.10;99.90;;;;;;5036735;28;20377;-38
2022/01/25 05:05:20;;;;;;;38.58;18.98;;;5.10;99.90;;;;;;5035938;28;20079;-38
2022/01/25 05:10:12;;;;;;;44.13;18.88;;;5.10;99.90;;;;;;5036006;28;20044;-38
2022/01/25 05:12:50;;;;;;;42.35;18.95;;;5.00;99.90;;;;;;5035861;28;20021;-38
2022/01/25 05:15:38;;;;;;;45.70;18.90;;;5.00;99.90;;;;;;5035908;28;20064;-38
2022/01/25 05:18:16;;;;;;;;;;;4.90;99.90;;;;;;5036117;28;20049;-38
2022/01/25 05:23:27;;;;;;;44.38;18.70;;;5.00;99.90;;;;;;5035852;28;20045;-38
2022/01/25 05:25:52;;;;;;;44.45;19.40;;;5.00;99.90;;;;;;5035597;28;20025;-39
2022/01/25 05:28:18;;;;;;;48.20;20.10;;;5.00;99.90;;;;;;5046488;28;20031;-38
2022/01/25 05:30:44;;;;;;;40.25;18.65;;;5.00;99.90;;;;;;5055223;28;20087;-38
2022/01/25 05:33:09;;;;;;;44.95;19.25;;;5.10;99.90;;;;;;5055350;28;20506;-39
2022/01/25 05:35:35;;;;;;;46.08;20.55;;;5.10;99.90;;;;;;5043566;28;20157;-38
2022/01/25 05:38:01;;;;;;;46.92;19.33;;;5.20;99.90;;;;;;5055251;28;20104;-40
2022/01/25 05:48:22;;;;;;;48.47;20.52;;;5.10;99.90;;;;;;5035220;28;20116;-39
2022/01/25 05:50:48;;;;;;;41.67;19.00;;;5.20;99.90;;;;;;5034970;28;20025;-45
2022/01/25 05:53:14;;;;;;;52.25;20.67;;;5.20;99.90;;;;;;5034744;28;20046;-39
2022/01/25 05:55:41;;;;;;;49.10;21.23;;;5.30;99.90;;;;;;5034934;28;20390;-40
2022/01/25 05:58:06;;;;;;;46.72;19.95;;;5.30;99.90;;;;;;5034982;28;20017;-39
2022/01/25 06:00:32;;;;;;;43.03;18.08;;;5.30;99.90;;;;;;5034828;28;20022;-39
2022/01/25 06:02:58;;;;;;;47.50;20.85;;;5.30;99.90;;;;;;5040033;28;20025;-39
2022/01/25 06:05:23;;;;;;;52.25;20.95;;;5.20;99.90;;;;;;5054934;28;20014;-38
2022/01/25 06:07:52;;;;;;;50.40;20.63;;;5.20;99.90;;;;;;5054645;28;20074;-38
2022/01/25 06:10:18;;;;;;;45.05;19.88;;;5.20;99.90;;;;;;5054519;28;20017;-39
2022/01/25 06:12:45;;;;;;;54.70;21.17;;;5.20;99.90;;;;;;5054649;28;20108;-37
2022/01/25 06:15:11;;;;;;;49.50;20.95;;;5.10;99.90;;;;;;5053908;28;20132;-38
2022/01/25 06:17:37;;;;;;;51.20;21.08;;;5.10;99.90;;;;;;5034420;28;20517;-38
2022/01/25 06:20:03;;;;;;;50.85;21.30;;;5.10;99.90;;;;;;5034597;28;20026;-37
2022/01/25 06:22:29;;;;;;;48.83;20.15;;;5.20;99.90;;;;;;5034403;28;20033;-39
2022/01/25 06:24:55;;;;;;;47.38;21.73;;;5.20;99.90;;;;;;5033196;28;20103;-39
2022/01/25 06:27:20;;;;;;;54.63;23.20;;;5.20;99.90;;;;;;5033132;28;20021;-38
2022/01/25 06:29:47;;;;;;;51.15;21.95;;;5.30;99.90;;;;;;5034396;28;20109;-39
2022/01/25 06:32:13;;;;;;;54.22;22.98;;;5.30;99.90;;;;;;5032944;28;20045;-39
2022/01/25 06:34:38;;;;;;;53.47;22.27;;;5.30;99.90;;;;;;5034209;28;20512;-40
2022/01/25 06:37:05;;;;;;;52.88;22.02;;;5.30;99.90;;;;;;5049486;28;20024;-38
2022/01/25 06:39:30;;;;;;;52.20;21.40;;;5.30;99.90;;;;;;5054043;28;20075;-37
2022/01/25 06:41:56;;;;;;;52.22;21.60;;;5.30;99.90;;;;;;5053126;28;20020;-38
2022/01/25 06:44:22;;;;;;;51.83;21.58;;;5.30;99.90;;;;;;5053894;28;20024;-38
2022/01/25 06:46:47;;;;;;;53.95;22.08;;;5.30;99.90;;;;;;5053945;28;20028;-38
2022/01/25 06:49:14;;;;;;;56.22;24.00;;;5.30;99.90;;;;;;5054073;28;20025;-40
2022/01/25 06:51:40;;;;;;;58.55;23.33;;;5.30;99.90;;;;;;5053593;28;20032;-58
2022/01/25 06:54:07;;;;;;;52.92;23.10;;;5.30;99.90;;;;;;5053691;28;20045;-39
2022/01/25 06:56:32;;;;;;;62.88;24.52;;;5.30;99.90;;;;;;5045994;28;20059;-37
2022/01/25 06:58:58;;;;;;;57.22;23.27;;;5.30;99.90;;;;;;5033821;28;20540;-39
2022/01/25 07:01:24;;;;;;;55.15;22.25;;;5.40;99.90;;;;;;5033511;28;20115;-38
2022/01/25 07:03:49;;;;;;;60.42;24.80;;;5.50;99.90;;;;;;5033716;28;20021;-38
2022/01/25 07:06:15;;;;;;;65.50;25.15;;;5.40;99.90;;;;;;5043360;28;20557;-38
2022/01/25 07:08:44;;;;;;;55.22;23.00;;;5.30;99.90;;;;;;5053354;28;20079;-37
2022/01/25 07:11:10;;;;;;;64.00;25.05;;;5.30;99.90;;;;;;5053247;28;20035;-40
2022/01/25 07:13:35;;;;;;;58.90;24.35;;;5.20;99.90;;;;;;5053359;28;20099;-37
2022/01/25 07:16:01;;;;;;;58.38;23.33;;;5.10;99.90;;;;;;5053249;28;20024;-38
2022/01/25 07:18:26;;;;;;;66.80;25.35;;;5.10;99.90;;;;;;5051357;28;20021;-38
2022/01/25 07:20:52;;;;;;;64.07;24.70;;;5.10;99.90;;;;;;5053563;28;20362;-38
2022/01/25 07:23:18;;;;;;;60.35;23.38;;;5.20;99.90;;;;;;5053431;28;20018;-38
2022/01/25 07:25:43;;;;;;;60.75;23.98;;;5.20;99.90;;;;;;5051919;28;20029;-39
2022/01/25 07:28:09;;;;;;;58.33;24.13;;;5.20;99.90;;;;;;5053059;28;20036;-40
2022/01/25 07:30:34;;;;;;;62.38;24.30;;;5.20;99.90;;;;;;5043312;28;20068;-39
2022/01/25 07:33:05;;;;;;;59.15;24.35;;;5.30;99.90;;;;;;5033012;28;20074;-39
2022/01/25 07:35:35;;;;;;;61.63;24.05;;;5.30;99.90;;;;;;5037184;28;20025;-38
2022/01/25 07:38:02;;;;;;;62.42;24.58;;;5.30;99.90;;;;;;5052984;28;20021;-39
2022/01/25 07:40:28;;;;;;;65.00;25.58;;;5.30;99.90;;;;;;5052873;28;20021;-39
2022/01/25 07:42:53;;;;;;;58.95;23.88;;;5.30;99.90;;;;;;5052918;28;20067;-39
2022/01/25 07:45:20;;;;;;;67.28;26.42;;;5.30;99.90;;;;;;5052843;28;20550;-57
2022/01/25 07:47:46;;;;;;;62.95;24.58;;;5.20;99.90;;;;;;5036501;28;20032;-40
2022/01/25 07:50:12;;;;;;;68.70;26.70;;;5.20;99.90;;;;;;5035247;28;20033;-37
2022/01/25 07:52:38;;;;;;;68.90;26.42;;;5.20;99.90;;;;;;5032796;28;20079;-42
2022/01/25 07:55:05;;;;;;;66.47;25.20;;;5.30;99.90;;;;;;5033034;28;20503;-37
2022/01/25 07:57:30;;;;;;;70.07;27.55;;;5.40;99.90;;;;;;5033011;28;20022;-40
2022/01/25 07:59:57;;;;;;;73.90;25.08;;;5.30;99.90;;;;;;5032770;28;20022;-38
2022/01/25 08:02:23;;;;;;;70.47;28.10;;;5.20;99.90;;;;;;5037319;28;20087;-38
2022/01/25 08:04:49;;;;;;;70.57;26.52;;;5.10;99.90;;;;;;5052614;28;20036;-38
2022/01/25 08:07:15;;;;;;;69.15;27.52;;;5.10;99.90;;;;;;5050685;28;20040;-38
2022/01/25 08:09:40;;;;;;;68.22;25.80;;;5.10;99.90;;;;;;5052948;28;20032;-44
2022/01/25 08:12:07;;;;;;;68.47;26.10;;;5.10;99.90;;;;;;5052627;28;20024;-38
2022/01/25 08:14:32;;;;;;;69.25;25.52;;;5.00;99.90;;;;;;5052643;28;20074;-38
2022/01/25 08:16:58;;;;;;;69.93;26.75;;;4.90;99.90;;;;;;5036544;28;20022;-38
2022/01/25 08:19:24;;;;;;;66.05;25.67;;;5.00;99.90;;;;;;5052794;28;20021;-38
2022/01/25 08:21:50;;;;;;;66.68;24.35;;;5.00;99.90;;;;;;5042529;28;20180;-38
2022/01/25 08:24:18;;;;;;;74.13;27.85;;;5.10;99.90;;;;;;5032535;28;20033;-36
2022/01/25 08:26:46;;;;;;;75.88;27.75;;;5.10;99.90;;;;;;5032846;28;20490;-38
2022/01/25 08:29:11;;;;;;;64.93;26.42;;;5.00;99.90;;;;;;5032338;28;20477;-46
2022/01/25 08:31:41;;;;;;;66.80;26.48;;;5.00;99.90;;;;;;5037038;28;20086;-39
2022/01/25 08:34:07;;;;;;;68.80;26.83;;;5.10;99.90;;;;;;5052461;28;20478;-38
2022/01/25 08:36:34;;;;;;;70.10;27.98;;;5.10;99.90;;;;;;5052344;28;20496;-38
2022/01/25 08:38:59;;;;;;;68.30;27.08;;;5.20;99.90;;;;;;5034435;28;20092;-38
2022/01/25 08:41:26;;;;;;;60.53;24.75;;;5.30;99.90;;;;;;5032315;28;20490;-38
2022/01/25 08:43:52;;;;;;;65.90;24.92;;;5.30;99.90;;;;;;5032654;28;20103;-38
2022/01/25 08:46:18;;;;;;;70.90;25.27;;;5.30;99.90;;;;;;5032771;28;20017;-40
2022/01/25 08:48:45;;;;;;;67.38;26.80;;;5.40;99.90;;;;;;5040849;28;20041;-36
2022/01/25 08:51:12;;;;;;;72.75;27.20;;;5.50;99.90;;;;;;5051093;28;20068;-38
2022/01/25 08:53:37;;;;;;;68.93;26.33;;;5.50;99.90;;;;;;5039833;28;20513;-38
2022/01/25 08:56:03;;;;;;;65.18;24.58;;;5.50;99.90;;;;;;5032291;28;20021;-38
2022/01/25 08:58:29;;;;;;;62.15;23.45;;;5.50;99.90;;;;;;5032407;28;20075;-37
2022/01/25 09:00:56;;;;;;;68.78;26.73;;;5.40;99.90;;;;;;5032450;28;20101;-38
2022/01/25 09:03:21;;;;;;;63.65;24.55;;;5.40;99.90;;;;;;5031124;28;20026;-39
2022/01/25 09:05:47;;;;;;;65.00;25.27;;;5.30;99.90;;;;;;5032534;28;20371;-38
2022/01/25 09:08:19;;;;;;;75.03;25.80;;;5.30;99.90;;;;;;5034142;28;20148;-37
2022/01/25 09:10:45;;;;;;;68.75;24.88;;;5.20;99.90;;;;;;5052161;28;20102;-38
2022/01/25 09:13:11;;;;;;;66.82;25.23;;;5.20;99.90;;;;;;5048890;28;20056;-37
2022/01/25 09:15:37;;;;;;;68.82;27.90;;;5.30;99.90;;;;;;5054004;28;20029;-38
2022/01/25 09:18:03;;;;;;;70.50;26.52;;;5.30;99.90;;;;;;5043563;28;20482;-42
2022/01/25 09:20:28;;;;;;;65.68;25.88;;;5.30;99.90;;;;;;5055592;28;20071;-45
2022/01/25 09:22:54;;;;;;;69.07;26.95;;;5.30;99.90;;;;;;5055495;28;20099;-38
2022/01/25 09:25:20;;;;;;;69.43;26.77;;;5.40;99.90;;;;;;5055076;28;20123;-37
2022/01/25 09:27:46;;;;;;;66.68;26.20;;;5.40;99.90;;;;;;5049297;28;20021;-39
2022/01/25 09:30:11;;;;;;;76.35;27.05;;;5.50;99.90;;;;;;5035670;28;20502;-38
2022/01/25 09:32:37;;;;;;;63.67;25.35;;;5.50;99.90;;;;;;5037226;28;20041;-39
2022/01/25 09:35:03;;;;;;;66.20;26.92;;;5.60;99.90;;;;;;5055202;28;20473;-39
2022/01/25 09:37:29;;;;;;;72.22;25.90;;;5.60;99.90;;;;;;5053249;28;20018;-38
2022/01/25 09:39:54;;;;;;;71.00;27.45;;;5.60;99.90;;;;;;5055210;28;20032;-38
2022/01/25 09:42:21;;;;;;;74.03;28.75;;;5.50;99.90;;;;;;5055078;28;20029;-38
2022/01/25 09:44:48;;;;;;;62.50;25.25;;;5.50;99.90;;;;;;5053795;28;20044;-38
2022/01/25 09:47:14;;;;;;;66.00;24.87;;;5.40;99.90;;;;;;5055401;28;20032;-39
2022/01/25 09:49:39;;;;;;;74.38;26.15;;;5.40;99.90;;;;;;5051742;28;20493;-39
2022/01/25 09:52:07;;;;;;;74.50;26.77;;;5.40;99.90;;;;;;5036145;28;20473;-39
2022/01/25 09:54:34;;;;;;;78.05;27.83;;;5.30;99.90;;;;;;5034911;28;20124;-38
2022/01/25 09:57:01;;;;;;;69.75;27.33;;;5.30;99.90;;;;;;5034950;28;20029;-39
2022/01/25 09:59:26;;;;;;;77.60;27.55;;;5.40;99.90;;;;;;5035036;28;20034;-41
2022/01/25 10:01:53;;;;;;;71.97;25.23;;;5.40;99.90;;;;;;5046769;28;20553;-57
2022/01/25 10:04:39;;;;;;;71.97;25.13;;;5.40;99.90;;;;;;5041093;28;20021;-38
2022/01/25 10:07:08;;;;;;;64.63;25.85;;;5.40;99.90;;;;;;5035008;28;20509;-53
2022/01/25 10:09:34;;;;;;;81.28;26.73;;;5.40;99.90;;;;;;5053492;28;20473;-39
2022/01/25 10:12:19;;;;;;;69.60;27.70;;;5.40;99.90;;;;;;5043956;28;20029;-39
2022/01/25 10:14:54;;;;;;;70.13;26.90;;;5.40;99.90;;;;;;5034706;28;20429;-62
2022/01/25 10:17:30;;;;;;;64.15;25.42;;;5.40;99.90;;;;;;5034656;28;20025;-56
2022/01/25 10:19:55;;;;;;;65.68;25.90;;;5.50;99.90;;;;;;5034941;28;20084;-62
2022/01/25 10:22:21;;;;;;;77.43;27.83;;;5.50;99.90;;;;;;5034227;28;20041;-39
2022/01/25 10:24:47;;;;;;;74.30;27.63;;;5.60;99.90;;;;;;5034541;28;20537;-40
2022/01/25 10:27:13;;;;;;;67.15;25.35;;;5.60;99.90;;;;;;5045184;28;20035;-38
2022/01/25 10:29:41;;;;;;;67.75;25.00;;;5.80;99.90;;;;;;5050846;28;20384;-38
2022/01/25 10:32:09;;;;;;;73.80;26.93;;;5.80;99.90;;;;;;5032908;28;20111;-37
2022/01/25 10:34:41;;;;;;;69.75;26.23;;;5.70;99.90;;;;;;5034261;28;20386;-37
2022/01/25 10:37:08;;;;;;;75.95;26.52;;;5.60;99.90;;;;;;5033301;28;20550;-36
2022/01/25 10:39:36;;;;;;;77.22;26.85;;;5.60;99.90;;;;;;5034167;28;20560;-36
2022/01/25 10:42:11;;;;;;;70.68;25.67;;;5.60;99.90;;;;;;5034363;28;20489;-45
2022/01/25 10:45:17;;;;;;;67.35;25.77;;;5.60;99.90;;;;;;5037480;28;20033;-38
2022/01/25 10:47:45;;;;;;;69.20;25.88;;;5.60;99.90;;;;;;5034122;28;20057;-39
2022/01/25 10:50:23;;;;;;;64.50;25.55;;;5.40;99.90;;;;;;5034230;28;20449;-39
2022/01/25 10:53:09;;;;;;;72.72;25.58;;;5.40;99.90;;;;;;5017244;28;20057;-41
2022/01/25 10:55:46;;;;;;;65.63;25.33;;;5.30;99.90;;;;;;5034024;28;20367;-38
2022/01/25 10:58:13;;;;;;;65.65;24.52;;;5.30;99.90;;;;;;5033725;28;20072;-38
2022/01/25 11:00:44;;;;;;;67.95;25.50;;;5.30;99.90;;;;;;5033705;28;20143;-38
2022/01/25 11:03:10;;;;;;;68.32;25.85;;;5.40;99.90;;;;;;5033978;28;20029;-37
2022/01/25 11:05:40;;;;;;;71.63;27.45;;;5.40;99.90;;;;;;5033548;28;20029;-39
2022/01/25 11:08:17;;;;;;;79.65;27.77;;;5.40;99.90;;;;;;5033772;28;20021;-39
2022/01/25 11:11:01;;;;;;;67.93;24.95;;;5.50;99.90;;;;;;5033481;28;20505;-40
2022/01/25 11:16:00;;;;;;;71.75;26.00;;;5.50;99.90;;;;;;5033683;28;20037;-39
2022/01/25 11:18:26;;;;;;;78.72;26.83;;;5.30;99.90;;;;;;5033394;28;20022;-39
2022/01/25 11:20:53;;;;;;;69.15;24.88;;;5.20;99.90;;;;;;5044203;28;20060;-39
2022/01/25 11:23:20;;;;;;;50.00;19.53;;;5.30;99.90;;;;;;5053229;28;20017;-39
2022/01/25 11:25:47;;;;;;;69.93;25.13;;;5.30;99.90;;;;;;5047678;28;20052;-37
2022/01/25 11:28:13;;;;;;;71.68;24.98;;;5.30;99.90;;;;;;5033863;28;20032;-39
2022/01/25 11:30:40;;;;;;;74.25;26.42;;;5.30;99.90;;;;;;5036918;28;20030;-40
2022/01/25 11:33:09;;;;;;;74.60;26.77;;;5.30;99.90;;;;;;5045146;28;20032;-40
2022/01/25 11:35:35;;;;;;;67.43;25.45;;;5.40;99.90;;;;;;5049424;28;20078;-38
2022/01/25 11:38:03;;;;;;;69.60;25.35;;;5.40;99.90;;;;;;5052959;28;20390;-37
2022/01/25 11:40:39;;;;;;;74.75;26.25;;;5.40;99.90;;;;;;5039311;28;20037;-38
2022/01/25 11:43:11;;;;;;;63.50;23.50;;;5.40;99.90;;;;;;5034184;28;20033;-38
2022/01/25 11:45:40;;;;;;;66.88;25.17;;;5.40;99.90;;;;;;5033117;28;20478;-43
2022/01/25 11:48:06;;;;;;;69.75;25.05;;;5.50;99.90;;;;;;5032832;28;20029;-38
2022/01/25 11:50:39;;;;;;;62.92;24.17;;;5.50;99.90;;;;;;5032820;28;20029;-38
2022/01/25 11:53:13;;;;;;;74.85;26.27;;;5.50;99.90;;;;;;5049218;28;20119;-39
2022/01/25 11:55:48;;;;;;;71.22;25.65;;;5.50;99.90;;;;;;5040524;28;20413;-38
2022/01/25 11:58:27;;;;;;;74.78;25.10;;;5.50;99.90;;;;;;5032806;28;20104;-38
2022/01/25 12:01:14;;;;;;;68.03;23.08;;;5.40;99.90;;;;;;5031570;28;20091;-39
2022/01/25 12:04:01;;;;;;;69.85;24.58;;;5.40;99.90;;;;;;5048963;28;20485;-37
2022/01/25 12:06:44;;;;;;;69.75;24.17;;;5.40;99.90;;;;;;5048732;28;20067;-39
2022/01/25 12:12:07;;;;;;;70.00;25.08;;;5.30;99.90;;;;;;5042290;28;20071;-39
2022/01/25 12:14:43;;;;;;;72.20;25.40;;;5.30;99.90;;;;;;5032722;28;20048;-43
2022/01/25 12:17:13;;;;;;;71.88;24.20;;;5.40;99.90;;;;;;5032763;28;20400;-38
2022/01/25 12:19:45;;;;;;;70.00;24.80;;;5.50;99.90;;;;;;5032780;28;20053;-40
2022/01/25 12:22:14;;;;;;;64.90;24.33;;;5.50;99.90;;;;;;5032821;28;20071;-39
2022/01/25 12:24:44;;;;;;;69.97;23.70;;;5.60;99.90;;;;;;5032623;28;20049;-53
2022/01/25 12:29:44;;;;;;;66.07;24.55;;;5.40;99.90;;;;;;5033894;28;20037;-38
2022/01/25 12:32:25;;;;;;;74.70;24.52;;;5.40;99.90;;;;;;5040768;28;20029;-38
2022/01/25 12:35:05;;;;;;;68.30;25.05;;;5.40;99.90;;;;;;5052415;28;20020;-41
2022/01/25 12:37:42;;;;;;;61.47;22.55;;;5.40;99.90;;;;;;5038135;28;20021;-38
2022/01/25 12:40:26;;;;;;;74.47;25.77;;;5.40;99.90;;;;;;5035488;28;20026;-39
2022/01/25 12:42:57;;;;;;;69.28;24.40;;;5.30;99.90;;;;;;5032563;28;20068;-42
2022/01/25 12:45:26;;;;;;;68.75;24.38;;;5.40;99.90;;;;;;5036335;28;20432;-45
2022/01/25 12:48:00;;;;;;;66.35;23.17;;;5.40;99.90;;;;;;5036243;28;20049;-38
2022/01/25 12:50:26;;;;;;;65.72;22.95;;;5.40;99.90;;;;;;5049787;28;20021;-39
2022/01/25 12:52:53;;;;;;;69.65;24.98;;;5.50;99.90;;;;;;5055979;28;20450;-39
2022/01/25 12:55:25;;;;;;;67.47;23.50;;;5.60;99.90;;;;;;5055988;28;20017;-39
2022/01/25 12:57:53;;;;;;;62.15;23.15;;;5.70;99.90;;;;;;5054395;28;20405;-37
2022/01/25 13:00:20;;;;;;;67.13;22.55;;;5.70;99.90;;;;;;5055995;28;20447;-39
2022/01/25 13:02:45;;;;;;;66.65;23.88;;;5.60;99.90;;;;;;5038013;28;20121;-51
2022/01/25 13:05:20;;;;;;;60.70;22.02;;;5.70;99.90;;;;;;5034690;28;20438;-38
2022/01/25 13:07:46;;;;;;;63.85;21.73;;;5.70;99.90;;;;;;5038931;28;20040;-52
2022/01/25 13:10:26;;;;;;;72.45;24.33;;;5.70;99.90;;;;;;5035881;28;20037;-38
2022/01/25 13:13:10;;;;;;;65.70;21.48;;;5.70;99.90;;;;;;5036343;28;20065;-40
2022/01/25 13:15:51;;;;;;;62.30;22.70;;;5.60;99.90;;;;;;5036039;28;20498;-40
2022/01/25 13:18:17;;;;;;;68.22;23.33;;;5.40;99.90;;;;;;5035760;28;20029;-40
2022/01/25 13:20:46;;;;;;;67.57;23.38;;;5.30;99.90;;;;;;5035676;28;20022;-40
2022/01/25 13:23:12;;;;;;;66.32;24.40;;;5.30;99.90;;;;;;5035902;28;20030;-42
2022/01/25 13:25:53;;;;;;;66.50;23.20;;;5.30;99.90;;;;;;5035500;28;20029;-40
2022/01/25 13:28:33;;;;;;;70.45;23.08;;;5.30;99.90;;;;;;5054133;28;20561;-39
2022/01/25 13:30:59;;;;;;;58.67;22.02;;;5.30;99.90;;;;;;5042307;28;20492;-37
2022/01/25 13:33:28;;;;;;;62.92;22.33;;;5.40;99.90;;;;;;5035259;28;20018;-38
2022/01/25 13:35:56;;;;;;;76.05;25.67;;;5.50;99.90;;;;;;5035372;28;20032;-41
2022/01/25 13:38:30;;;;;;;65.07;24.55;;;5.50;99.90;;;;;;5035778;28;20104;-43
2022/01/25 13:46:36;;;;;;;64.57;22.73;;;5.50;99.90;;;;;;5035541;28;20038;-38
2022/01/25 13:49:19;;;;;;;65.90;23.40;;;5.40;99.90;;;;;;5035321;28;20017;-38
2022/01/25 13:51:51;;;;;;;72.80;24.65;;;5.40;99.90;;;;;;5034945;28;20025;-37
2022/01/25 13:54:19;;;;;;;63.17;22.50;;;5.30;99.90;;;;;;5034942;28;20056;-38
2022/01/25 13:56:45;;;;;;;;;;;5.30;99.90;;;;;;5035531;28;20092;-38
2022/01/25 13:59:12;;;;;;;66.55;22.02;;;5.20;99.90;;;;;;5049186;28;19947;-38
2022/01/25 14:01:40;;;;;;;71.30;22.60;;;5.30;99.90;;;;;;5054941;28;20021;-38
2022/01/25 14:04:17;;;;;;;67.05;22.55;;;5.40;99.90;;;;;;5054750;28;20025;-40
2022/01/25 14:06:49;;;;;;;68.75;23.52;;;5.50;99.90;;;;;;5053114;28;20036;-39
2022/01/25 14:09:23;;;;;;;74.93;23.88;;;5.50;99.90;;;;;;5053537;28;20037;-40
2022/01/25 14:25:40;;;;;;;65.13;22.80;;;5.40;99.90;;;;;;5034452;28;20756;-39
2022/01/25 14:28:21;;;;;;;65.65;23.45;;;5.30;99.90;;;;;;5034755;28;20220;-39
2022/01/25 14:30:50;;;;;;;60.45;22.27;;;5.30;99.90;;;;;;5045947;28;20093;-38
2022/01/25 14:33:22;;;;;;;66.38;20.80;;;5.30;99.90;;;;;;5054149;28;20159;-37
2022/01/25 14:35:53;;;;;;;69.57;22.42;;;5.30;99.90;;;;;;5054472;28;20477;-37
2022/01/25 14:38:25;;;;;;;67.72;23.75;;;5.30;99.90;;;;;;5054187;28;20505;-37
2022/01/25 14:41:13;;;;;;;64.28;22.30;;;5.30;99.90;;;;;;5053644;28;20363;-38
2022/01/25 14:44:04;;;;;;;;;;;5.30;99.90;;;;;;5053079;28;20032;-43
2022/01/25 14:46:36;;;;;;;65.88;22.23;;;5.30;99.90;;;;;;5048912;28;19916;-40
2022/01/25 14:49:10;;;;;;;71.22;24.67;;;5.20;99.90;;;;;;5052665;28;20117;-38
2022/01/25 14:51:46;;;;;;;64.55;21.90;;;5.10;99.90;;;;;;5052536;28;20041;-38
2022/01/25 14:54:42;;;;;;;62.20;21.58;;;5.10;99.90;;;;;;5053088;28;20056;-37
2022/01/25 14:57:13;;;;;;;69.45;21.10;;;5.10;99.90;;;;;;5052736;28;20062;-43